createdAt,value
2023-01-20T00:02:17.541Z,100.00
2023-01-20T00:04:44.724Z,100.00
2023-01-20T00:07:11.705Z,100.00
2023-01-20T00:09:38.775Z,100.00
2023-01-20T00:12:05.838Z,100.00
2023-01-20T00:14:32.998Z,100.00
2023-01-20T00:17:00.230Z,100.00
2023-01-20T00:19:27.622Z,100.00
2023-01-20T00:21:54.913Z,100.00
2023-01-20T00:24:21.964Z,100.00
2023-01-20T00:26:48.983Z,100.00
2023-01-20T00:29:16.142Z,100.00
2023-01-20T00:31:43.306Z,100.00
2023-01-20T00:34:11.458Z,100.00
2023-01-20T00:36:38.549Z,100.00
2023-01-20T00:39:05.652Z,100.00
2023-01-20T00:41:32.788Z,100.00
2023-01-20T00:44:00.062Z,100.00
2023-01-20T00:46:27.258Z,100.00
2023-01-20T00:48:54.594Z,100.00
2023-01-20T00:51:21.717Z,100.00
2023-01-20T00:53:48.965Z,100.00
2023-01-20T00:56:16.109Z,100.00
2023-01-20T00:58:44.220Z,100.00
2023-01-20T01:01:11.819Z,100.00
2023-01-20T01:03:38.807Z,100.00
2023-01-20T01:06:07.345Z,100.00
2023-01-20T01:08:34.893Z,100.00
2023-01-20T01:11:02.092Z,100.00
2023-01-20T01:13:29.123Z,100.00
2023-01-20T01:15:56.251Z,100.00
2023-01-20T01:18:23.296Z,100.00
2023-01-20T01:20:50.406Z,100.00
2023-01-20T01:23:17.540Z,100.00
2023-01-20T01:25:44.608Z,100.00
2023-01-20T01:28:11.677Z,100.00
2023-01-20T01:30:38.729Z,100.00
2023-01-20T01:33:05.809Z,100.00
2023-01-20T01:35:32.840Z,100.00
2023-01-20T01:37:59.865Z,100.00
2023-01-20T01:40:26.847Z,100.00
2023-01-20T01:42:53.863Z,100.00
2023-01-20T01:45:22.870Z,100.00
2023-01-20T01:48:05.533Z,100.00
2023-01-20T01:50:37.493Z,100.00
2023-01-20T01:53:05.272Z,100.00
2023-01-20T01:55:35.377Z,100.00
2023-01-20T01:58:05.222Z,100.00
2023-01-20T02:00:33.335Z,100.00
2023-01-20T02:03:01.491Z,100.00
2023-01-20T02:05:30.654Z,100.00
2023-01-20T02:07:58.657Z,100.00
2023-01-20T02:10:28.205Z,100.00
2023-01-20T02:12:57.414Z,100.00
2023-01-20T02:15:34.511Z,100.00
2023-01-20T02:18:10.469Z,100.00
2023-01-20T02:20:44.364Z,100.00
2023-01-20T02:23:30.329Z,100.00
2023-01-20T02:26:00.504Z,100.00
2023-01-20T02:28:31.067Z,100.00
2023-01-20T02:30:58.415Z,100.00
2023-01-20T02:33:30.733Z,100.00
2023-01-20T02:36:10.480Z,100.00
2023-01-20T02:38:42.580Z,100.00
2023-01-20T02:41:15.734Z,100.00
2023-01-20T02:43:53.577Z,100.00
2023-01-20T02:46:27.738Z,100.00
2023-01-20T02:49:14.562Z,100.00
2023-01-20T02:51:44.417Z,100.00
2023-01-20T02:54:17.385Z,100.00
2023-01-20T02:56:45.417Z,100.00
2023-01-20T02:59:15.038Z,100.00
2023-01-20T03:01:51.213Z,100.00
2023-01-20T03:04:22.080Z,100.00
2023-01-20T03:06:55.193Z,100.00
2023-01-20T03:09:29.093Z,100.00
2023-01-20T03:11:59.534Z,100.00
2023-01-20T03:14:28.267Z,100.00
2023-01-20T03:16:56.714Z,100.00
2023-01-20T03:19:28.237Z,100.00
2023-01-20T03:21:56.497Z,100.00
2023-01-20T03:24:24.792Z,100.00
2023-01-20T03:26:54.279Z,100.00
2023-01-20T03:29:23.678Z,100.00
2023-01-20T03:32:00.153Z,100.00
2023-01-20T03:34:30.379Z,100.00
2023-01-20T03:36:59.789Z,100.00
2023-01-20T03:39:27.450Z,100.00
2023-01-20T03:42:00.862Z,100.00
2023-01-20T03:44:34.421Z,100.00
2023-01-20T03:47:01.922Z,100.00
2023-01-20T03:49:49.447Z,100.00
2023-01-20T03:52:47.064Z,100.00
2023-01-20T03:55:27.362Z,100.00
2023-01-20T03:57:58.391Z,100.00
2023-01-20T04:00:29.642Z,100.00
2023-01-20T04:02:59.193Z,100.00
2023-01-20T04:05:26.636Z,100.00
2023-01-20T04:07:57.948Z,100.00
2023-01-20T04:10:29.768Z,100.00
2023-01-20T04:12:57.859Z,100.00
2023-01-20T04:15:29.690Z,100.00
2023-01-20T04:17:58.623Z,100.00
2023-01-20T04:20:28.662Z,100.00
2023-01-20T04:22:59.601Z,100.00
2023-01-20T04:25:29.469Z,100.00
2023-01-20T04:27:57.371Z,100.00
2023-01-20T04:30:28.176Z,100.00
2023-01-20T04:32:56.882Z,100.00
2023-01-20T04:35:24.618Z,100.00
2023-01-20T04:37:52.273Z,100.00
2023-01-20T04:40:20.683Z,100.00
2023-01-20T04:42:48.600Z,100.00
2023-01-20T04:45:16.824Z,100.00
2023-01-20T04:47:44.775Z,100.00
2023-01-20T04:50:13.294Z,100.00
2023-01-20T04:52:40.721Z,100.00
2023-01-20T04:55:08.526Z,100.00
2023-01-20T04:57:37.970Z,100.00
2023-01-20T05:00:06.523Z,100.00
2023-01-20T05:02:33.949Z,100.00
2023-01-20T05:05:01.291Z,100.00
2023-01-20T05:07:29.862Z,100.00
2023-01-20T05:09:57.293Z,100.00
2023-01-20T05:12:24.761Z,100.00
2023-01-20T05:14:52.832Z,100.00
2023-01-20T05:17:20.807Z,100.00
2023-01-20T05:19:49.045Z,100.00
2023-01-20T05:22:16.558Z,100.00
2023-01-20T05:24:43.806Z,100.00
2023-01-20T05:27:11.773Z,100.00
2023-01-20T05:29:39.747Z,100.00
2023-01-20T05:32:06.983Z,100.00
2023-01-20T05:34:34.544Z,100.00
2023-01-20T05:37:01.800Z,100.00
2023-01-20T05:39:30.093Z,100.00
2023-01-20T05:41:59.068Z,100.00
2023-01-20T05:44:27.833Z,100.00
2023-01-20T05:46:56.377Z,100.00
2023-01-20T05:49:23.900Z,100.00
2023-01-20T05:51:51.325Z,100.00
2023-01-20T05:54:18.608Z,100.00
2023-01-20T05:56:47.909Z,100.00
2023-01-20T05:59:15.725Z,100.00
2023-01-20T06:01:43.514Z,100.00
2023-01-20T06:04:10.692Z,100.00
2023-01-20T06:06:38.421Z,100.00
2023-01-20T06:09:06.830Z,100.00
2023-01-20T06:11:34.227Z,100.00
2023-01-20T06:14:03.055Z,100.00
2023-01-20T06:16:30.104Z,100.00
2023-01-20T06:18:57.779Z,100.00
2023-01-20T06:21:25.871Z,100.00
2023-01-20T06:23:54.476Z,100.00
2023-01-20T06:26:21.726Z,100.00
2023-01-20T06:28:49.326Z,100.00
2023-01-20T06:31:18.135Z,100.00
2023-01-20T06:33:45.587Z,100.00
2023-01-20T06:36:17.213Z,100.00
2023-01-20T06:38:51.162Z,100.00
2023-01-20T06:41:20.251Z,100.00
2023-01-20T06:43:51.572Z,100.00
2023-01-20T06:46:19.962Z,100.00
2023-01-20T06:48:49.256Z,100.00
2023-01-20T06:51:19.965Z,100.00
2023-01-20T06:53:47.223Z,100.00
2023-01-20T06:56:15.241Z,100.00
2023-01-20T06:58:42.710Z,100.00
2023-01-20T07:01:19.246Z,100.00
2023-01-20T07:03:47.304Z,100.00
2023-01-20T07:06:16.166Z,100.00
2023-01-20T07:08:45.070Z,100.00
2023-01-20T07:11:12.783Z,100.00
2023-01-20T07:13:40.200Z,100.00
2023-01-20T07:16:10.656Z,100.00
2023-01-20T07:18:39.026Z,100.00
2023-01-20T07:21:06.191Z,100.00
2023-01-20T07:23:33.799Z,100.00
2023-01-20T07:26:02.313Z,100.00
2023-01-20T07:28:31.526Z,100.00
2023-01-20T07:31:05.673Z,100.00
2023-01-20T07:33:33.297Z,100.00
2023-01-20T07:36:01.254Z,100.00
2023-01-20T07:38:28.883Z,100.00
2023-01-20T07:40:59.262Z,100.00
2023-01-20T07:43:26.565Z,100.00
2023-01-20T07:45:59.034Z,100.00
2023-01-20T07:48:26.922Z,100.00
2023-01-20T07:51:05.131Z,100.00
2023-01-20T07:53:34.307Z,100.00
2023-01-20T07:56:04.741Z,100.00
2023-01-20T07:58:32.416Z,100.00
2023-01-20T08:01:09.486Z,100.00
2023-01-20T08:03:37.038Z,100.00
2023-01-20T08:06:04.860Z,100.00
2023-01-20T08:08:32.897Z,100.00
2023-01-20T08:11:01.868Z,100.00
2023-01-20T08:13:29.480Z,100.00
2023-01-20T08:16:00.651Z,100.00
2023-01-20T08:18:28.218Z,100.00
2023-01-20T08:20:56.136Z,100.00
2023-01-20T08:23:23.934Z,100.00
2023-01-20T08:26:00.731Z,100.00
2023-01-20T08:28:28.318Z,100.00
2023-01-20T08:30:56.347Z,100.00
2023-01-20T08:33:23.589Z,100.00
2023-01-20T08:35:52.437Z,97.72
2023-01-20T08:38:26.086Z,96.17
2023-01-20T08:40:54.106Z,94.16
2023-01-20T08:43:21.369Z,95.54
2023-01-20T08:45:57.667Z,95.27
2023-01-20T08:48:24.827Z,93.58
2023-01-20T08:50:51.895Z,93.53
2023-01-20T08:53:19.956Z,93.69
2023-01-20T08:55:57.186Z,89.85
2023-01-20T08:58:25.474Z,89.60
2023-01-20T09:00:54.256Z,89.13
2023-01-20T09:03:23.402Z,89.54
2023-01-20T09:05:50.955Z,87.76
2023-01-20T09:08:18.879Z,87.03
2023-01-20T09:10:46.662Z,83.60
2023-01-20T09:13:14.422Z,82.17
2023-01-20T09:15:42.899Z,80.88
2023-01-20T09:18:10.160Z,79.98
2023-01-20T09:20:37.319Z,76.48
2023-01-20T09:23:04.634Z,71.64
2023-01-20T09:25:32.645Z,70.75
2023-01-20T09:28:00.387Z,64.78
2023-01-20T09:30:27.576Z,62.91
2023-01-20T09:32:56.476Z,62.04
2023-01-20T09:35:24.731Z,61.42
2023-01-20T09:38:12.037Z,61.78
2023-01-20T09:41:13.058Z,58.98
2023-01-20T09:43:58.724Z,59.75
2023-01-20T09:46:26.037Z,59.19
2023-01-20T09:49:51.243Z,58.67
2023-01-20T09:52:58.096Z,57.86
2023-01-20T09:55:33.052Z,56.14
2023-01-20T09:58:06.397Z,60.00
2023-01-20T10:00:34.199Z,58.83
2023-01-20T10:03:07.106Z,56.30
2023-01-20T10:05:37.634Z,56.86
2023-01-20T10:08:08.955Z,57.20
2023-01-20T10:10:56.139Z,56.26
2023-01-20T10:13:29.155Z,55.28
2023-01-20T10:15:57.196Z,57.57
2023-01-20T10:18:27.958Z,58.74
2023-01-20T10:21:00.157Z,57.97
2023-01-20T10:23:33.961Z,56.88
2023-01-20T10:26:13.023Z,57.55
2023-01-20T10:28:55.413Z,56.38
2023-01-20T10:31:25.606Z,61.21
2023-01-20T10:33:55.148Z,56.54
2023-01-20T10:36:27.251Z,57.10
2023-01-20T10:38:58.121Z,56.73
2023-01-20T10:41:32.005Z,54.31
2023-01-20T10:44:00.859Z,58.67
2023-01-20T10:46:28.061Z,59.84
2023-01-20T10:49:07.468Z,60.95
2023-01-20T10:51:38.048Z,59.03
2023-01-20T10:54:23.728Z,60.57
2023-01-20T10:56:56.068Z,61.13
2023-01-20T10:59:32.201Z,61.40
2023-01-20T11:02:14.136Z,63.02
2023-01-20T11:04:41.572Z,61.82
2023-01-20T11:07:13.690Z,61.65
2023-01-20T11:09:42.293Z,61.96
2023-01-20T11:12:17.075Z,63.36
2023-01-20T11:14:45.201Z,60.35
2023-01-20T11:17:16.631Z,62.73
2023-01-20T11:19:54.090Z,63.06
2023-01-20T11:22:28.016Z,61.78
2023-01-20T11:24:56.173Z,62.92
2023-01-20T11:27:25.871Z,62.33
2023-01-20T11:29:57.807Z,63.41
2023-01-20T11:32:27.839Z,61.66
2023-01-20T11:34:57.297Z,62.41
2023-01-20T11:37:36.869Z,63.84
2023-01-20T11:40:19.394Z,63.62
2023-01-20T11:42:47.731Z,64.18
2023-01-20T11:45:26.987Z,62.18
2023-01-20T11:48:00.459Z,63.49
2023-01-20T11:50:38.793Z,61.59
2023-01-20T11:53:13.504Z,65.58
2023-01-20T11:55:45.777Z,64.14
2023-01-20T11:58:16.687Z,64.14
2023-01-20T12:00:44.294Z,63.63
2023-01-20T12:03:14.495Z,64.24
2023-01-20T12:05:48.397Z,64.22
2023-01-20T12:08:23.493Z,64.77
2023-01-20T12:10:51.196Z,62.36
2023-01-20T12:13:24.777Z,62.99
2023-01-20T12:15:54.750Z,63.16
2023-01-20T12:18:38.860Z,62.30
2023-01-20T12:21:18.155Z,58.70
2023-01-20T12:23:47.755Z,57.47
2023-01-20T12:26:16.454Z,60.33
2023-01-20T12:29:02.493Z,60.25
2023-01-20T12:31:29.961Z,60.83
2023-01-20T12:34:00.821Z,60.17
2023-01-20T12:36:46.838Z,60.42
2023-01-20T12:39:16.953Z,59.63
2023-01-20T12:41:44.160Z,56.99
2023-01-20T12:44:11.337Z,57.98
2023-01-20T12:46:45.678Z,57.39
2023-01-20T12:49:15.729Z,56.25
2023-01-20T12:51:51.557Z,58.48
2023-01-20T12:54:18.718Z,55.72
2023-01-20T12:57:04.805Z,53.34
2023-01-20T12:59:52.075Z,57.01
2023-01-20T13:02:22.261Z,54.13
2023-01-20T13:04:59.290Z,54.67
2023-01-20T13:07:50.457Z,55.72
2023-01-20T13:10:17.890Z,55.26
2023-01-20T13:12:54.807Z,55.68
2023-01-20T13:15:21.959Z,55.02
2023-01-20T13:17:49.109Z,55.57
2023-01-20T13:20:23.176Z,55.05
2023-01-20T13:22:51.179Z,53.50
2023-01-20T13:25:19.905Z,52.73
2023-01-20T13:27:48.178Z,52.14
2023-01-20T13:30:35.613Z,53.21
2023-01-20T13:33:04.635Z,54.57
2023-01-20T13:35:34.037Z,56.53
2023-01-20T13:38:01.486Z,55.26
2023-01-20T13:40:38.001Z,53.72
2023-01-20T13:43:26.710Z,53.28
2023-01-20T13:46:03.241Z,56.02
2023-01-20T13:48:31.577Z,54.26
2023-01-20T13:51:29.673Z,52.94
2023-01-20T13:54:15.345Z,52.26
2023-01-20T13:56:42.521Z,53.46
2023-01-20T13:59:09.553Z,53.79
2023-01-20T14:01:39.510Z,55.21
2023-01-20T14:04:13.955Z,54.82
2023-01-20T14:06:47.796Z,55.58
2023-01-20T14:09:19.459Z,53.36
2023-01-20T14:11:50.621Z,57.68
2023-01-20T14:14:22.465Z,54.85
2023-01-20T14:16:49.644Z,55.68
2023-01-20T14:19:23.267Z,53.56
2023-01-20T14:21:54.739Z,53.70
2023-01-20T14:24:27.242Z,52.13
2023-01-20T14:27:13.341Z,55.66
2023-01-20T14:29:40.440Z,56.18
2023-01-20T14:32:22.237Z,56.21
2023-01-20T14:34:50.620Z,55.13
2023-01-20T14:37:24.139Z,56.04
2023-01-20T14:39:51.592Z,56.18
2023-01-20T14:42:20.136Z,56.72
2023-01-20T14:44:47.995Z,55.26
2023-01-20T14:47:15.428Z,56.83
2023-01-20T14:49:43.961Z,58.62
2023-01-20T14:52:22.364Z,57.56
2023-01-20T14:54:56.104Z,57.75
2023-01-20T14:57:33.765Z,54.83
2023-01-20T15:00:09.904Z,56.61
2023-01-20T15:02:37.573Z,54.30
2023-01-20T15:05:25.411Z,56.49
2023-01-20T15:08:03.669Z,55.36
2023-01-20T15:10:30.934Z,54.02
2023-01-20T15:12:59.480Z,54.83
2023-01-20T15:15:28.770Z,55.91
2023-01-20T15:18:11.185Z,54.01
2023-01-20T15:20:40.849Z,55.03
2023-01-20T15:23:16.394Z,60.21
2023-01-20T15:25:43.552Z,57.33
2023-01-20T15:28:27.495Z,60.20
2023-01-20T15:30:55.954Z,62.33
2023-01-20T15:33:23.917Z,63.76
2023-01-20T15:35:53.839Z,66.67
2023-01-20T15:38:21.389Z,70.10
2023-01-20T15:40:48.440Z,69.69
2023-01-20T15:43:16.498Z,71.73
2023-01-20T15:45:43.986Z,72.15
2023-01-20T15:48:13.567Z,73.41
2023-01-20T15:50:41.989Z,74.05
2023-01-20T15:53:12.483Z,74.85
2023-01-20T15:55:42.475Z,77.71
2023-01-20T15:58:29.788Z,81.70
2023-01-20T16:00:57.848Z,85.06
2023-01-20T16:03:25.802Z,87.98
2023-01-20T16:05:54.883Z,88.89
2023-01-20T16:08:22.963Z,92.00
2023-01-20T16:10:50.473Z,93.06
2023-01-20T16:13:17.490Z,94.08
2023-01-20T16:15:44.707Z,93.65
2023-01-20T16:18:13.557Z,93.08
2023-01-20T16:20:41.385Z,94.01
2023-01-20T16:23:08.484Z,94.20
2023-01-20T16:25:35.939Z,92.96
2023-01-20T16:28:09.130Z,94.63
2023-01-20T16:30:36.126Z,92.69
2023-01-20T16:33:03.206Z,93.02
2023-01-20T16:35:30.240Z,94.91
2023-01-20T16:37:57.643Z,94.94
2023-01-20T16:40:24.710Z,96.01
2023-01-20T16:42:54.491Z,96.24
2023-01-20T16:45:23.618Z,96.25
2023-01-20T16:47:50.793Z,92.98
2023-01-20T16:50:18.538Z,93.61
2023-01-20T16:52:45.840Z,92.69
2023-01-20T16:55:13.719Z,92.40
2023-01-20T16:57:41.885Z,91.93
2023-01-20T17:00:09.973Z,91.86
2023-01-20T17:02:38.985Z,95.73
2023-01-20T17:05:07.494Z,95.29
2023-01-20T17:07:34.887Z,95.43
2023-01-20T17:10:02.064Z,92.03
2023-01-20T17:12:29.383Z,92.42
2023-01-20T17:14:56.553Z,91.16
2023-01-20T17:17:23.629Z,92.10
2023-01-20T17:19:50.778Z,90.74
2023-01-20T17:22:18.129Z,89.96
2023-01-20T17:24:45.290Z,90.47
2023-01-20T17:27:12.331Z,90.31
2023-01-20T17:29:39.678Z,88.20
2023-01-20T17:32:06.702Z,87.89
2023-01-20T17:34:33.868Z,88.48
2023-01-20T17:37:00.882Z,88.49
2023-01-20T17:39:28.023Z,88.43
2023-01-20T17:41:55.110Z,88.65
2023-01-20T17:44:22.232Z,88.54
2023-01-20T17:46:50.320Z,87.91
2023-01-20T17:49:17.739Z,88.69
2023-01-20T17:51:45.060Z,88.48
2023-01-20T17:54:12.153Z,90.67
2023-01-20T17:56:39.267Z,92.34
2023-01-20T17:59:06.482Z,91.89
2023-01-20T18:01:33.659Z,93.13
2023-01-20T18:04:01.337Z,94.98
2023-01-20T18:06:28.892Z,91.78
2023-01-20T18:08:57.617Z,92.53
2023-01-20T18:11:25.628Z,94.07
2023-01-20T18:13:55.184Z,93.86
2023-01-20T18:16:23.702Z,94.93
2023-01-20T18:18:51.237Z,96.12
2023-01-20T18:21:19.532Z,96.78
2023-01-20T18:23:47.470Z,96.90
2023-01-20T18:26:15.568Z,97.57
2023-01-20T18:28:43.026Z,98.33
2023-01-20T18:31:11.936Z,94.91
2023-01-20T18:33:41.016Z,96.11
2023-01-20T18:36:09.589Z,98.25
2023-01-20T18:38:38.320Z,100.00
2023-01-20T18:41:05.610Z,98.23
2023-01-20T18:43:32.934Z,99.46
2023-01-20T18:46:00.210Z,98.20
2023-01-20T18:48:27.326Z,96.73
2023-01-20T18:50:59.880Z,95.82
2023-01-20T18:53:27.330Z,94.91
2023-01-20T18:56:04.776Z,95.74
2023-01-20T18:58:32.912Z,95.12
2023-01-20T19:01:06.966Z,96.74
2023-01-20T19:03:34.557Z,97.39
2023-01-20T19:06:08.016Z,97.70
2023-01-20T19:08:35.241Z,98.40
2023-01-20T19:11:03.504Z,98.86
2023-01-20T19:13:30.875Z,96.22
2023-01-20T19:15:58.245Z,98.02
2023-01-20T19:18:25.305Z,96.91
2023-01-20T19:20:52.481Z,96.44
2023-01-20T19:23:19.880Z,95.25
2023-01-20T19:25:48.802Z,94.58
2023-01-20T19:28:15.983Z,95.94
2023-01-20T19:30:43.056Z,95.15
2023-01-20T19:33:12.088Z,94.42
2023-01-20T19:35:41.221Z,94.20
2023-01-20T19:38:09.053Z,94.18
2023-01-20T19:40:36.177Z,94.67
2023-01-20T19:43:03.174Z,93.15
2023-01-20T19:45:44.802Z,95.61
2023-01-20T19:48:12.520Z,93.18
2023-01-20T19:50:39.879Z,93.18
2023-01-20T19:53:06.877Z,92.64
2023-01-20T19:55:33.994Z,91.58
2023-01-20T19:58:01.033Z,90.04
2023-01-20T20:00:28.140Z,89.37
2023-01-20T20:02:55.671Z,89.74
2023-01-20T20:05:22.819Z,89.33
2023-01-20T20:07:51.084Z,88.78
2023-01-20T20:10:18.506Z,89.13
2023-01-20T20:12:45.928Z,89.53
2023-01-20T20:15:13.197Z,89.58
2023-01-20T20:17:40.511Z,89.75
2023-01-20T20:20:08.266Z,89.02
2023-01-20T20:22:35.541Z,89.89
2023-01-20T20:25:02.803Z,89.30
2023-01-20T20:27:30.053Z,88.51
2023-01-20T20:30:01.155Z,89.17
2023-01-20T20:32:28.753Z,90.26
2023-01-20T20:34:58.470Z,90.71
2023-01-20T20:37:26.013Z,89.29
2023-01-20T20:39:53.314Z,89.37
2023-01-20T20:42:20.940Z,89.18
2023-01-20T20:44:48.233Z,90.11
2023-01-20T20:47:15.533Z,90.75
2023-01-20T20:49:42.878Z,89.77
2023-01-20T20:52:10.242Z,90.80
2023-01-20T20:54:37.561Z,90.05
2023-01-20T20:57:05.046Z,90.23
2023-01-20T20:59:32.437Z,90.05
2023-01-20T21:01:59.741Z,89.69
2023-01-20T21:04:27.096Z,89.46
2023-01-20T21:06:54.360Z,88.36
2023-01-20T21:09:21.613Z,88.83
2023-01-20T21:11:48.827Z,89.17
2023-01-20T21:14:17.587Z,91.03
2023-01-20T21:16:44.890Z,89.97
2023-01-20T21:19:12.217Z,91.17
2023-01-20T21:21:39.716Z,90.76
2023-01-20T21:24:09.959Z,91.22
2023-01-20T21:26:37.277Z,93.32
2023-01-20T21:29:04.530Z,94.28
2023-01-20T21:31:32.447Z,93.31
2023-01-20T21:34:01.086Z,94.01
2023-01-20T21:36:29.459Z,95.53
2023-01-20T21:38:59.000Z,94.22
2023-01-20T21:41:26.487Z,92.60
2023-01-20T21:44:32.233Z,92.96
2023-01-20T21:47:04.563Z,92.74
2023-01-20T21:49:54.997Z,90.46
2023-01-20T21:52:42.477Z,92.29
2023-01-20T21:55:15.910Z,92.65
2023-01-20T21:57:43.214Z,93.98
2023-01-20T22:00:11.687Z,93.25
2023-01-20T22:02:40.692Z,94.12
2023-01-20T22:05:08.396Z,96.26
2023-01-20T22:07:35.651Z,94.29
2023-01-20T22:10:03.861Z,96.80
2023-01-20T22:12:34.485Z,92.38
2023-01-20T22:15:03.236Z,94.45
2023-01-20T22:17:31.167Z,96.39
2023-01-20T22:19:58.348Z,95.49
2023-01-20T22:22:25.735Z,95.15
2023-01-20T22:24:53.509Z,96.18
2023-01-20T22:27:20.876Z,96.58
2023-01-20T22:29:48.182Z,95.07
2023-01-20T22:32:15.635Z,96.11
2023-01-20T22:34:42.810Z,95.41
2023-01-20T22:37:10.174Z,96.84
2023-01-20T22:39:37.380Z,96.90
2023-01-20T22:42:04.761Z,96.66
2023-01-20T22:44:31.978Z,97.91
2023-01-20T22:46:59.252Z,97.99
2023-01-20T22:49:26.643Z,98.63
2023-01-20T22:51:54.713Z,96.73
2023-01-20T22:54:22.031Z,97.12
2023-01-20T22:56:49.372Z,99.94
2023-01-20T22:59:16.674Z,95.53
2023-01-20T23:01:43.950Z,96.22
2023-01-20T23:04:11.321Z,97.43
2023-01-20T23:06:39.280Z,100.00
2023-01-20T23:09:09.253Z,100.00
2023-01-20T23:11:38.303Z,98.72
2023-01-20T23:14:06.568Z,97.77
2023-01-20T23:16:33.928Z,99.56
2023-01-20T23:19:01.175Z,100.00
2023-01-20T23:21:28.525Z,100.00
2023-01-20T23:23:55.784Z,99.14
2023-01-20T23:26:25.486Z,100.00
2023-01-20T23:28:53.953Z,99.43
2023-01-20T23:31:23.510Z,98.49
2023-01-20T23:33:52.702Z,97.06
2023-01-20T23:36:25.124Z,97.33
2023-01-20T23:38:56.505Z,98.18
2023-01-20T23:41:24.752Z,98.29
2023-01-20T23:43:52.252Z,97.12
2023-01-20T23:46:19.541Z,95.48
2023-01-20T23:48:47.546Z,92.55
2023-01-20T23:51:15.284Z,93.37
2023-01-20T23:53:42.844Z,89.08
2023-01-20T23:56:13.428Z,92.46
2023-01-20T23:58:41.343Z,92.05
